createdAt,value
2022-08-22T00:01:34.220Z,6.25
2022-08-22T00:02:45.363Z,5.13
2022-08-22T00:04:13.364Z,5.88
2022-08-22T00:06:52.453Z,5.90
2022-08-22T00:09:33.188Z,5.38
2022-08-22T00:12:15.762Z,5.95
2022-08-22T00:14:52.262Z,6.13
2022-08-22T00:17:34.490Z,6.50
2022-08-22T00:20:11.193Z,6.22
2022-08-22T00:22:47.908Z,6.30
2022-08-22T00:25:41.940Z,6.93
2022-08-22T00:28:16.863Z,6.68
2022-08-22T00:30:53.025Z,6.97
2022-08-22T00:33:31.678Z,6.65
2022-08-22T00:36:16.374Z,6.20
2022-08-22T00:38:52.112Z,6.47
2022-08-22T00:41:35.186Z,6.53
2022-08-22T00:44:36.062Z,7.07
2022-08-22T00:47:31.495Z,6.68
2022-08-22T00:50:26.856Z,6.22
2022-08-22T00:53:08.263Z,7.07
2022-08-22T00:55:59.289Z,6.57
2022-08-22T00:58:46.686Z,6.00
2022-08-22T01:01:19.799Z,6.10
2022-08-22T01:04:21.105Z,6.00
2022-08-22T01:07:16.999Z,6.57
2022-08-22T01:09:58.749Z,6.35
2022-08-22T01:12:47.253Z,6.63
2022-08-22T01:15:21.960Z,5.75
2022-08-22T01:18:10.906Z,6.43
2022-08-22T01:21:30.151Z,5.75
2022-08-22T01:24:36.962Z,6.13
2022-08-22T01:28:11.629Z,6.60
2022-08-22T01:31:16.720Z,6.13
2022-08-22T01:34:26.092Z,5.43
2022-08-22T01:37:27.971Z,6.85
2022-08-22T01:40:29.844Z,6.65
2022-08-22T01:43:11.382Z,6.00
2022-08-22T01:46:03.465Z,6.20
2022-08-22T01:48:38.961Z,5.90
2022-08-22T01:51:19.159Z,6.28
2022-08-22T01:54:02.850Z,5.93
2022-08-22T01:56:36.469Z,5.80
2022-08-22T01:59:11.082Z,5.38
2022-08-22T02:01:58.197Z,5.25
2022-08-22T02:04:38.439Z,5.45
2022-08-22T02:07:14.364Z,5.38
2022-08-22T02:09:52.303Z,6.05
2022-08-22T02:12:32.720Z,5.50
2022-08-22T02:15:14.316Z,5.38
2022-08-22T02:18:01.115Z,5.25
2022-08-22T02:20:35.135Z,5.45
2022-08-22T02:23:20.836Z,5.70
2022-08-22T02:25:53.675Z,6.35
2022-08-22T02:28:34.235Z,5.20
2022-08-22T02:31:08.411Z,5.45
2022-08-22T02:33:54.595Z,5.20
2022-08-22T02:36:28.544Z,5.82
2022-08-22T02:39:06.409Z,5.07
2022-08-22T02:41:45.913Z,6.15
2022-08-22T02:44:20.990Z,5.32
2022-08-22T02:46:55.973Z,5.95
2022-08-22T02:49:43.748Z,5.78
2022-08-22T02:52:18.240Z,5.82
2022-08-22T02:54:57.872Z,5.80
2022-08-22T02:57:39.407Z,5.07
2022-08-22T03:00:30.749Z,5.65
2022-08-22T03:03:06.858Z,5.55
2022-08-22T03:05:49.432Z,5.10
2022-08-22T03:08:29.291Z,5.40
2022-08-22T03:11:11.127Z,5.28
2022-08-22T03:13:54.894Z,5.40
2022-08-22T03:16:30.520Z,5.03
2022-08-22T03:19:05.413Z,5.13
2022-08-22T03:21:38.132Z,5.20
2022-08-22T03:24:13.879Z,5.30
2022-08-22T03:26:51.729Z,5.65
2022-08-22T03:29:25.153Z,6.18
2022-08-22T03:32:14.165Z,5.60
2022-08-22T03:35:00.427Z,6.10
2022-08-22T03:37:39.417Z,5.90
2022-08-22T03:40:24.694Z,6.22
2022-08-22T03:43:25.069Z,5.93
2022-08-22T03:46:27.472Z,6.45
2022-08-22T03:49:40.840Z,5.97
2022-08-22T03:52:30.058Z,6.35
2022-08-22T03:55:17.493Z,6.43
2022-08-22T03:58:27.556Z,6.47
2022-08-22T04:01:40.817Z,6.45
2022-08-22T04:04:35.406Z,6.13
2022-08-22T04:07:28.320Z,6.10
2022-08-22T04:10:33.747Z,6.25
2022-08-22T04:13:32.792Z,5.78
2022-08-22T04:16:46.079Z,6.32
2022-08-22T04:19:54.219Z,6.82
2022-08-22T04:22:49.724Z,5.78
2022-08-22T04:25:24.207Z,5.60
2022-08-22T04:28:02.726Z,5.95
2022-08-22T04:30:36.990Z,6.15
2022-08-22T04:33:11.094Z,6.40
2022-08-22T04:35:46.483Z,6.47
2022-08-22T04:38:21.169Z,6.20
2022-08-22T04:40:55.553Z,6.72
2022-08-22T04:43:29.450Z,6.80
2022-08-22T04:46:05.505Z,5.95
2022-08-22T04:48:38.948Z,6.85
2022-08-22T04:51:17.588Z,6.15
2022-08-22T04:54:12.250Z,6.57
2022-08-22T04:56:49.947Z,6.38
2022-08-22T04:59:19.982Z,5.82
2022-08-22T05:01:54.960Z,7.38
2022-08-22T05:04:27.961Z,6.47
2022-08-22T05:07:07.061Z,6.70
2022-08-22T05:09:40.026Z,6.85
2022-08-22T05:12:14.566Z,7.05
2022-08-22T05:14:46.852Z,6.45
2022-08-22T05:17:19.611Z,6.15
2022-08-22T05:19:52.843Z,6.47
2022-08-22T05:22:32.032Z,6.53
2022-08-22T05:25:07.185Z,6.70
2022-08-22T05:27:40.561Z,6.57
2022-08-22T05:30:13.627Z,6.80
2022-08-22T05:32:50.178Z,7.20
2022-08-22T05:35:20.706Z,6.47
2022-08-22T05:37:55.060Z,7.28
2022-08-22T05:40:26.414Z,7.28
2022-08-22T05:42:57.112Z,6.88
2022-08-22T05:45:28.314Z,6.90
2022-08-22T05:48:05.305Z,7.03
2022-08-22T05:50:39.759Z,7.38
2022-08-22T05:53:14.482Z,7.18
2022-08-22T05:55:57.932Z,7.10
2022-08-22T05:58:45.660Z,7.22
2022-08-22T06:01:22.987Z,6.70
2022-08-22T06:04:02.364Z,7.65
2022-08-22T06:06:34.892Z,8.02
2022-08-22T06:09:07.232Z,7.97
2022-08-22T06:11:42.018Z,7.63
2022-08-22T06:14:30.712Z,7.30
2022-08-22T06:17:07.339Z,8.43
2022-08-22T06:19:40.863Z,7.90
2022-08-22T06:22:11.740Z,7.32
2022-08-22T06:24:45.960Z,7.60
2022-08-22T06:27:17.779Z,8.02
2022-08-22T06:29:53.200Z,7.22
2022-08-22T06:32:59.500Z,8.43
2022-08-22T06:35:19.419Z,8.27
2022-08-22T06:37:50.063Z,8.65
2022-08-22T06:40:19.964Z,8.35
2022-08-22T06:42:51.295Z,8.00
2022-08-22T06:45:25.521Z,7.90
2022-08-22T06:48:00.576Z,8.40
2022-08-22T06:50:33.486Z,8.57
2022-08-22T06:53:07.143Z,8.40
2022-08-22T06:55:37.717Z,8.63
2022-08-22T06:58:08.722Z,8.40
2022-08-22T07:00:39.704Z,8.20
2022-08-22T07:03:17.648Z,8.77
2022-08-22T07:05:46.100Z,8.05
2022-08-22T07:08:17.143Z,9.05
2022-08-22T07:10:50.749Z,8.50
2022-08-22T07:13:21.451Z,8.57
2022-08-22T07:15:58.068Z,8.55
2022-08-22T07:18:28.321Z,8.57
2022-08-22T07:20:59.289Z,8.40
2022-08-22T07:23:35.137Z,8.55
2022-08-22T07:26:18.572Z,8.88
2022-08-22T07:28:58.377Z,8.65
2022-08-22T07:31:38.429Z,8.85
2022-08-22T07:34:35.949Z,9.60
2022-08-22T07:37:10.854Z,9.45
2022-08-22T07:39:44.874Z,8.98
2022-08-22T07:42:18.416Z,10.00
2022-08-22T07:45:04.580Z,8.38
2022-08-22T07:47:49.719Z,9.05
2022-08-22T07:50:23.848Z,7.85
2022-08-22T07:52:56.383Z,9.02
2022-08-22T07:55:27.431Z,9.98
2022-08-22T07:58:02.103Z,9.18
2022-08-22T08:00:34.567Z,9.07
2022-08-22T08:03:08.889Z,9.68
2022-08-22T08:05:46.201Z,10.93
2022-08-22T08:08:21.283Z,9.02
2022-08-22T08:10:52.091Z,9.15
2022-08-22T08:13:26.422Z,8.70
2022-08-22T08:15:55.853Z,8.98
2022-08-22T08:18:29.607Z,10.18
2022-08-22T08:21:03.640Z,10.13
2022-08-22T08:23:39.637Z,10.77
2022-08-22T08:26:13.397Z,9.23
2022-08-22T08:28:48.132Z,9.63
2022-08-22T08:31:23.947Z,11.10
2022-08-22T08:34:05.230Z,10.57
2022-08-22T08:36:41.653Z,10.57
2022-08-22T08:39:22.493Z,9.27
2022-08-22T08:42:15.885Z,9.95
2022-08-22T08:45:15.458Z,10.13
2022-08-22T08:48:07.105Z,10.02
2022-08-22T08:50:57.815Z,9.77
2022-08-22T08:54:04.055Z,9.20
2022-08-22T08:56:39.608Z,10.02
2022-08-22T08:59:25.631Z,10.20
2022-08-22T09:02:13.741Z,10.18
2022-08-22T09:05:37.004Z,9.40
2022-08-22T09:08:31.112Z,9.38
2022-08-22T09:11:31.243Z,8.90
2022-08-22T09:14:16.565Z,8.60
2022-08-22T09:17:09.339Z,8.90
2022-08-22T09:20:17.730Z,8.57
2022-08-22T09:23:20.402Z,8.93
2022-08-22T09:25:56.235Z,8.85
2022-08-22T09:28:33.347Z,8.60
2022-08-22T09:34:29.708Z,8.48
2022-08-22T09:37:14.397Z,8.48
2022-08-22T09:39:52.268Z,7.60
2022-08-22T09:40:15.703Z,7.28
2022-08-22T09:42:30.842Z,6.90
2022-08-22T09:45:28.949Z,6.13
2022-08-22T09:48:07.010Z,6.18
2022-08-22T09:50:52.704Z,5.65
2022-08-22T09:53:55.911Z,4.95
2022-08-22T09:56:38.062Z,6.18
2022-08-22T09:59:15.259Z,7.00
2022-08-22T10:01:51.843Z,7.60
2022-08-22T10:04:47.625Z,7.70
2022-08-22T10:07:41.032Z,6.15
2022-08-22T10:10:28.882Z,7.05
2022-08-22T10:13:04.906Z,7.07
2022-08-22T10:15:47.996Z,6.78
2022-08-22T10:18:28.150Z,6.72
2022-08-22T10:21:07.069Z,6.45
2022-08-22T10:23:46.017Z,6.57
2022-08-22T10:26:25.679Z,6.65
2022-08-22T10:29:00.918Z,6.70
2022-08-22T10:31:51.047Z,7.72
2022-08-22T10:34:31.935Z,6.68
2022-08-22T10:37:14.245Z,6.85
2022-08-22T10:39:48.210Z,6.50
2022-08-22T10:42:28.182Z,6.55
2022-08-22T10:45:12.364Z,5.97
2022-08-22T10:48:22.603Z,4.53
2022-08-22T10:51:01.800Z,3.97
2022-08-22T10:53:38.801Z,4.30
2022-08-22T10:56:14.651Z,4.28
2022-08-22T10:58:49.737Z,4.55
2022-08-22T11:01:37.630Z,4.75
2022-08-22T11:04:28.241Z,5.75
2022-08-22T11:07:18.418Z,3.67
2022-08-22T11:09:59.473Z,3.85
2022-08-22T11:12:41.610Z,4.43
2022-08-22T11:15:24.207Z,3.67
2022-08-22T11:18:30.521Z,4.28
2022-08-22T11:21:07.344Z,3.25
2022-08-22T11:23:45.423Z,4.32
2022-08-22T11:26:35.776Z,5.57
2022-08-22T11:29:27.459Z,5.60
2022-08-22T11:32:07.748Z,5.45
2022-08-22T11:34:50.219Z,5.55
2022-08-22T11:37:56.525Z,5.10
2022-08-22T11:40:34.424Z,5.40
2022-08-22T11:43:18.971Z,5.97
2022-08-22T11:46:00.073Z,5.97
2022-08-22T11:48:39.008Z,5.70
2022-08-22T11:51:18.106Z,6.10
2022-08-22T11:54:04.534Z,5.68
2022-08-22T11:56:41.540Z,7.90
2022-08-22T11:59:22.536Z,6.53
2022-08-22T12:02:01.758Z,6.40
2022-08-22T12:04:35.564Z,5.95
2022-08-22T12:07:14.256Z,5.75
2022-08-22T12:09:58.732Z,5.90
2022-08-22T12:12:46.816Z,5.90
2022-08-22T12:15:22.458Z,6.15
2022-08-22T12:18:42.359Z,6.00
2022-08-22T12:21:46.944Z,6.25
2022-08-22T12:24:49.056Z,6.50
2022-08-22T12:27:48.091Z,6.10
2022-08-22T12:30:25.910Z,5.85
2022-08-22T12:33:39.879Z,5.47
2022-08-22T12:36:24.742Z,5.50
2022-08-22T12:39:24.443Z,5.07
2022-08-22T12:42:26.596Z,5.53
2022-08-22T12:45:12.114Z,6.13
2022-08-22T12:47:54.342Z,5.15
2022-08-22T12:50:36.424Z,4.70
2022-08-22T12:53:25.796Z,4.75
2022-08-22T12:56:06.449Z,4.80
2022-08-22T12:59:17.841Z,4.80
2022-08-22T13:01:51.205Z,4.50
2022-08-22T13:04:32.564Z,4.60
2022-08-22T13:07:22.721Z,5.05
2022-08-22T13:09:55.012Z,5.15
2022-08-22T13:12:28.261Z,4.85
2022-08-22T13:15:02.894Z,4.88
2022-08-22T13:17:33.873Z,5.15
2022-08-22T13:20:10.836Z,4.80
2022-08-22T13:22:45.546Z,4.85
2022-08-22T13:25:25.831Z,5.00
2022-08-22T13:27:59.121Z,4.60
2022-08-22T13:30:31.766Z,4.40
2022-08-22T13:33:10.336Z,4.75
2022-08-22T13:35:52.331Z,4.75
2022-08-22T13:38:46.571Z,4.80
2022-08-22T13:41:24.614Z,4.55
2022-08-22T13:44:22.703Z,3.95
2022-08-22T13:47:13.622Z,4.32
2022-08-22T13:49:45.291Z,3.78
2022-08-22T13:52:33.971Z,3.53
2022-08-22T13:55:15.219Z,3.70
2022-08-22T13:57:51.785Z,4.35
2022-08-22T14:00:59.600Z,3.55
2022-08-22T14:03:35.331Z,4.10
2022-08-22T14:06:36.930Z,4.55
2022-08-22T14:09:17.491Z,4.10
2022-08-22T14:12:12.293Z,3.72
2022-08-22T14:14:46.042Z,4.00
2022-08-22T14:17:18.564Z,3.80
2022-08-22T14:19:59.780Z,4.80
2022-08-22T14:22:41.552Z,4.70
2022-08-22T14:25:24.029Z,3.72
2022-08-22T14:28:00.994Z,3.80
2022-08-22T14:30:59.369Z,4.10
2022-08-22T14:33:34.732Z,4.10
2022-08-22T14:36:17.263Z,3.80
2022-08-22T14:39:25.956Z,4.07
2022-08-22T14:42:04.145Z,3.42
2022-08-22T14:44:41.234Z,4.03
2022-08-22T14:48:14.085Z,4.05
2022-08-22T14:50:45.644Z,3.90
2022-08-22T14:53:26.540Z,3.85
2022-08-22T14:56:18.115Z,4.07
2022-08-22T14:58:53.280Z,4.05
2022-08-22T15:01:25.023Z,3.88
2022-08-22T15:03:56.903Z,3.85
2022-08-22T15:06:36.336Z,4.20
2022-08-22T15:09:09.267Z,4.20
2022-08-22T15:11:42.155Z,4.20
2022-08-22T15:14:25.769Z,4.00
2022-08-22T15:17:05.532Z,4.40
2022-08-22T15:19:41.226Z,4.30
2022-08-22T15:22:15.001Z,4.57
2022-08-22T15:24:56.302Z,4.53
2022-08-22T15:27:27.742Z,4.57
2022-08-22T15:29:58.732Z,4.57
2022-08-22T15:32:30.329Z,4.90
2022-08-22T15:35:06.549Z,4.50
2022-08-22T15:37:53.970Z,4.20
2022-08-22T15:40:33.475Z,5.32
2022-08-22T15:43:14.994Z,4.63
2022-08-22T15:45:44.241Z,4.95
2022-08-22T15:48:27.764Z,5.57
2022-08-22T15:51:02.847Z,4.78
2022-08-22T15:53:34.182Z,5.07
2022-08-22T15:56:25.112Z,4.82
2022-08-22T15:59:53.589Z,4.80
2022-08-22T16:06:14.272Z,5.00
2022-08-22T16:08:50.583Z,4.90
2022-08-22T16:11:32.780Z,4.85
2022-08-22T16:14:24.441Z,5.30
2022-08-22T16:17:04.585Z,5.72
2022-08-22T16:19:34.415Z,5.40
2022-08-22T16:22:22.049Z,5.28
2022-08-22T16:25:17.491Z,5.38
2022-08-22T16:27:58.754Z,5.13
2022-08-22T16:30:41.051Z,4.00
2022-08-22T16:33:17.684Z,5.15
2022-08-22T16:36:24.469Z,4.60
2022-08-22T16:38:57.711Z,4.57
2022-08-22T16:41:31.560Z,3.78
2022-08-22T16:44:50.667Z,3.63
2022-08-22T16:47:23.068Z,2.92
2022-08-22T16:50:03.929Z,3.10
2022-08-22T16:52:53.935Z,2.70
2022-08-22T16:56:09.831Z,2.58
2022-08-22T16:59:06.058Z,2.05
2022-08-22T17:02:03.381Z,1.80
2022-08-22T17:04:45.435Z,2.00
2022-08-22T17:07:27.166Z,2.47
2022-08-22T17:10:21.785Z,1.90
2022-08-22T17:13:08.818Z,2.03
2022-08-22T17:15:48.267Z,2.05
2022-08-22T17:18:36.777Z,2.25
2022-08-22T17:21:13.253Z,1.75
2022-08-22T17:23:51.687Z,2.25
2022-08-22T17:26:26.457Z,1.90
2022-08-22T17:29:10.080Z,1.92
2022-08-22T17:31:50.156Z,1.90
2022-08-22T17:34:36.254Z,1.92
2022-08-22T17:37:12.066Z,2.20
2022-08-22T17:39:55.621Z,2.25
2022-08-22T17:42:53.357Z,1.85
2022-08-22T17:45:28.669Z,2.53
2022-08-22T17:48:04.000Z,2.05
2022-08-22T17:50:39.599Z,2.00
2022-08-22T17:53:16.479Z,2.95
2022-08-22T17:55:58.687Z,2.40
2022-08-22T17:58:43.510Z,2.35
2022-08-22T18:01:16.776Z,1.85
2022-08-22T18:04:01.121Z,2.17
2022-08-22T18:06:34.978Z,2.15
2022-08-22T18:09:14.394Z,1.95
2022-08-22T18:11:47.906Z,2.45
2022-08-22T18:14:30.113Z,2.20
2022-08-22T18:17:01.058Z,2.20
2022-08-22T18:19:43.505Z,2.20
2022-08-22T18:22:23.284Z,2.33
2022-08-22T18:24:55.735Z,2.10
2022-08-22T18:27:34.489Z,2.20
2022-08-22T18:30:20.476Z,2.40
2022-08-22T18:33:00.878Z,2.33
2022-08-22T18:35:36.629Z,2.28
2022-08-22T18:38:19.430Z,2.47
2022-08-22T18:40:55.674Z,2.67
2022-08-22T18:43:36.286Z,2.67
2022-08-22T18:46:28.572Z,2.83
2022-08-22T18:49:15.146Z,2.22
2022-08-22T18:52:16.674Z,2.17
2022-08-22T18:55:05.143Z,2.83
2022-08-22T18:58:00.833Z,3.17
2022-08-22T19:00:50.401Z,2.45
2022-08-22T19:03:44.639Z,3.03
2022-08-22T19:06:46.346Z,3.65
2022-08-22T19:09:43.311Z,3.20
2022-08-22T19:12:31.439Z,4.38
2022-08-22T19:15:21.463Z,2.75
2022-08-22T19:18:16.136Z,2.97
2022-08-22T19:21:23.969Z,2.90
2022-08-22T19:23:53.581Z,3.00
2022-08-22T19:26:38.834Z,2.30
2022-08-22T19:29:24.481Z,2.38
2022-08-22T19:31:54.792Z,3.15
2022-08-22T19:34:41.892Z,2.80
2022-08-22T19:37:32.795Z,3.00
2022-08-22T19:40:07.233Z,2.50
2022-08-22T19:42:41.705Z,2.33
2022-08-22T19:45:22.010Z,2.53
2022-08-22T19:48:02.202Z,2.60
2022-08-22T19:50:36.002Z,3.08
2022-08-22T19:53:35.984Z,2.58
2022-08-22T19:56:14.298Z,2.58
2022-08-22T19:58:56.104Z,2.65
2022-08-22T20:01:55.232Z,3.25
2022-08-22T20:04:43.195Z,2.97
2022-08-22T20:07:22.761Z,3.60
2022-08-22T20:10:00.647Z,3.40
2022-08-22T20:12:38.938Z,2.80
2022-08-22T20:15:22.263Z,2.70
2022-08-22T20:21:00.939Z,4.25
2022-08-22T20:23:32.286Z,3.95
2022-08-22T20:26:03.806Z,3.58
2022-08-22T20:28:45.405Z,3.50
2022-08-22T20:31:22.701Z,3.63
2022-08-22T20:33:58.986Z,3.65
2022-08-22T20:36:29.578Z,4.35
2022-08-22T20:39:03.050Z,3.22
2022-08-22T20:41:35.666Z,3.47
2022-08-22T20:44:13.597Z,3.00
2022-08-22T20:46:54.907Z,3.05
2022-08-22T20:49:30.296Z,3.08
2022-08-22T20:52:00.850Z,2.83
2022-08-22T20:54:31.437Z,2.90
2022-08-22T20:57:03.848Z,3.03
2022-08-22T20:59:37.129Z,2.83
2022-08-22T21:02:23.366Z,2.50
2022-08-22T21:05:00.275Z,3.40
2022-08-22T21:07:32.463Z,3.35
2022-08-22T21:10:35.609Z,3.15
2022-08-22T21:13:12.442Z,2.45
2022-08-22T21:15:45.991Z,3.03
2022-08-22T21:18:24.644Z,2.70
2022-08-22T21:20:53.367Z,2.97
2022-08-22T21:23:22.113Z,2.65
2022-08-22T21:25:58.958Z,3.28
2022-08-22T21:28:34.735Z,2.97
2022-08-22T21:31:12.323Z,2.97
2022-08-22T21:33:43.830Z,2.92
2022-08-22T21:36:23.474Z,2.95
2022-08-22T21:38:56.951Z,2.83
2022-08-22T21:41:28.166Z,3.05
2022-08-22T21:43:58.113Z,3.28
2022-08-22T21:46:29.886Z,5.22
2022-08-22T21:49:05.456Z,4.22
2022-08-22T21:51:42.413Z,3.53
2022-08-22T21:54:40.856Z,3.20
2022-08-22T21:57:20.037Z,3.17
2022-08-22T21:59:59.490Z,2.85
2022-08-22T22:02:36.813Z,2.88
2022-08-22T22:05:11.879Z,3.40
2022-08-22T22:07:53.719Z,2.80
2022-08-22T22:10:26.418Z,3.15
2022-08-22T22:13:06.351Z,3.25
2022-08-22T22:15:47.715Z,3.78
2022-08-22T22:18:18.658Z,3.70
2022-08-22T22:21:12.238Z,3.60
2022-08-22T22:23:42.197Z,3.15
2022-08-22T22:26:11.137Z,2.88
2022-08-22T22:28:42.242Z,2.70
2022-08-22T22:31:12.333Z,3.45
2022-08-22T22:33:44.112Z,2.80
2022-08-22T22:36:22.689Z,3.35
2022-08-22T22:38:52.846Z,3.80
2022-08-22T22:41:25.474Z,3.83
2022-08-22T22:43:58.141Z,3.22
2022-08-22T22:46:28.145Z,3.05
2022-08-22T22:48:57.994Z,3.50
2022-08-22T22:51:26.635Z,3.42
2022-08-22T22:53:57.202Z,3.45
2022-08-22T22:56:26.687Z,3.47
2022-08-22T22:59:00.597Z,3.92
2022-08-22T23:02:02.538Z,3.30
2022-08-22T23:04:31.914Z,4.10
2022-08-22T23:07:00.607Z,4.10
2022-08-22T23:09:38.496Z,3.88
2022-08-22T23:12:13.867Z,3.45
2022-08-22T23:14:42.608Z,3.75
2022-08-22T23:17:17.648Z,4.43
2022-08-22T23:19:47.637Z,3.70
2022-08-22T23:22:16.281Z,3.65
2022-08-22T23:24:44.659Z,3.90
2022-08-22T23:27:18.766Z,4.30
2022-08-22T23:29:50.529Z,4.32
2022-08-22T23:32:20.514Z,4.20
2022-08-22T23:34:49.754Z,4.22
2022-08-22T23:37:20.591Z,4.03
2022-08-22T23:39:49.739Z,3.97
2022-08-22T23:42:19.303Z,3.95
2022-08-22T23:44:48.461Z,3.85
2022-08-22T23:47:19.417Z,3.63
2022-08-22T23:50:26.640Z,3.97
2022-08-22T23:52:55.466Z,4.03
2022-08-22T23:55:23.842Z,4.20
2022-08-22T23:57:52.290Z,3.78
